Airfield :
LOGIN :

Register | Disclaimer

   EN    FR    IT 

 










Legend :    VFR   Marginal VFR   IFR   Intensive IFR   Very Intensive IFR
Visi :
Ceiling :
>= 8 km
>= 3000ft
5 to 8 km
1000 to 3000 ft
1500m to 5 km
500 to 1000 ft
800 to 1500m
200 to 500 ft
< 800m
< 200 ft
Symbols :   Thunderstorms  Fog  Heavy snow  Heavy precipitations  Wind > 20 kt
SIGMETs :     Misc.  Thunderstorms  Icing  Turbulence  Mountain Waves  Volcanic Ashes






- Airport Elevation : 291 ft
- IATA code : ORY


LFPO - Paris-Orly

CURRENT METAR :
  • 182000Z 05006KT CAVOK 04/03 Q1030 NOSIG

EXPIRED METARs :
  • 181930Z 04005KT CAVOK 04/03 Q1030 NOSIG
  • 181900Z 04007KT CAVOK 05/03 Q1030 NOSIG
  • 181830Z 03009KT CAVOK 06/03 Q1030 NOSIG
  • 181800Z 04005KT CAVOK 06/03 Q1029 NOSIG
  • 181730Z 02006KT CAVOK 06/03 Q1029 NOSIG

TAF TAF LFPO
Valid from the 18 at 18:00 until the 20 at 00:00 UTC


181700Z 1818/1924 01005KT CAVOK
BECMG 1901/1903 BKN020
PROB30
TEMPO 1901/1906 3000 BR BKN008
PROB30
TEMPO 1910/1912 BKN010
PROB30
TEMPO 1913/1916 36012G22KT -SHRA SCT020TCU
BECMG 1916/1919 CAVOK
ATIS : +33 1 49 75 65 80



MET'MAP, your aeronautical weather chart ! - Copyright ORBIFLY December 2007 - Disclaimer

ORBIFLY MET'MAP TEAM :

Programming & Development : Alexandra Zaïnal
Concept & original design : Baudouin d'Aumeries
Assistance for programming : Marc-Olivier Méhu
Technical & hardware support : Manuel Goepfert

Contact : metmap@orbifly.com




SOURCES & CREDITS :

   NOAA